sensor_id;sensor_type;location;lat;lon;timestamp;temperature;humidity
59208;DHT22;44977;53.132;6.408;2023-02-15T00:02:48;2.20;99.90
59208;DHT22;44977;53.132;6.408;2023-02-15T00:07:48;2.20;99.90
59208;DHT22;44977;53.132;6.408;2023-02-15T00:12:49;2.10;99.90
59208;DHT22;44977;53.132;6.408;2023-02-15T00:17:50;2.10;99.90
59208;DHT22;44977;53.132;6.408;2023-02-15T00:22:50;2.10;99.90
59208;DHT22;44977;53.132;6.408;2023-02-15T00:27:51;2.00;99.90
59208;DHT22;44977;53.132;6.408;2023-02-15T00:32:52;2.00;99.90
59208;DHT22;44977;53.132;6.408;2023-02-15T00:37:52;1.90;99.90
59208;DHT22;44977;53.132;6.408;2023-02-15T00:42:53;1.90;99.90
59208;DHT22;44977;53.132;6.408;2023-02-15T00:47:54;1.90;99.90
59208;DHT22;44977;53.132;6.408;2023-02-15T00:52:54;1.80;99.90
59208;DHT22;44977;53.132;6.408;2023-02-15T00:57:55;1.80;99.90
59208;DHT22;44977;53.132;6.408;2023-02-15T01:02:55;1.70;99.90
59208;DHT22;44977;53.132;6.408;2023-02-15T01:07:57;1.70;99.90
59208;DHT22;44977;53.132;6.408;2023-02-15T01:12:58;1.60;99.90
59208;DHT22;44977;53.132;6.408;2023-02-15T01:17:58;1.60;99.90
59208;DHT22;44977;53.132;6.408;2023-02-15T01:22:59;1.60;99.90
59208;DHT22;44977;53.132;6.408;2023-02-15T01:28:00;1.50;99.90
59208;DHT22;44977;53.132;6.408;2023-02-15T01:33:00;1.50;99.90
59208;DHT22;44977;53.132;6.408;2023-02-15T01:38:01;1.50;99.90
59208;DHT22;44977;53.132;6.408;2023-02-15T01:43:02;1.40;99.90
59208;DHT22;44977;53.132;6.408;2023-02-15T01:48:19;1.30;99.90
59208;DHT22;44977;53.132;6.408;2023-02-15T01:53:36;1.40;99.90
59208;DHT22;44977;53.132;6.408;2023-02-15T01:58:40;1.30;99.90
59208;DHT22;44977;53.132;6.408;2023-02-15T02:09:00;1.20;99.90
59208;DHT22;44977;53.132;6.408;2023-02-15T02:14:01;1.20;99.90
59208;DHT22;44977;53.132;6.408;2023-02-15T02:19:20;1.20;99.90
59208;DHT22;44977;53.132;6.408;2023-02-15T02:35:34;1.10;99.90
59208;DHT22;44977;53.132;6.408;2023-02-15T02:46:00;1.00;99.90
59208;DHT22;44977;53.132;6.408;2023-02-15T02:51:03;1.00;99.90
59208;DHT22;44977;53.132;6.408;2023-02-15T02:56:16;1.00;99.90
59208;DHT22;44977;53.132;6.408;2023-02-15T03:01:33;1.00;99.90
59208;DHT22;44977;53.132;6.408;2023-02-15T03:11:51;0.90;99.90
59208;DHT22;44977;53.132;6.408;2023-02-15T03:16:51;0.90;99.90
59208;DHT22;44977;53.132;6.408;2023-02-15T03:21:59;0.90;99.90
59208;DHT22;44977;53.132;6.408;2023-02-15T03:27:06;0.80;99.90
59208;DHT22;44977;53.132;6.408;2023-02-15T03:32:10;0.80;99.90
59208;DHT22;44977;53.132;6.408;2023-02-15T03:42:32;0.80;99.90
59208;DHT22;44977;53.132;6.408;2023-02-15T03:47:40;0.80;99.90
59208;DHT22;44977;53.132;6.408;2023-02-15T03:52:41;0.70;99.90
59208;DHT22;44977;53.132;6.408;2023-02-15T03:57:43;0.80;99.90
59208;DHT22;44977;53.132;6.408;2023-02-15T04:08:03;0.70;99.90
59208;DHT22;44977;53.132;6.408;2023-02-15T04:13:04;0.60;99.90
59208;DHT22;44977;53.132;6.408;2023-02-15T04:18:04;0.60;99.90
59208;DHT22;44977;53.132;6.408;2023-02-15T04:23:07;0.60;99.90
59208;DHT22;44977;53.132;6.408;2023-02-15T04:28:26;0.60;99.90
59208;DHT22;44977;53.132;6.408;2023-02-15T04:33:27;0.60;99.90
59208;DHT22;44977;53.132;6.408;2023-02-15T04:38:27;0.60;99.90
59208;DHT22;44977;53.132;6.408;2023-02-15T04:43:28;0.60;99.90
59208;DHT22;44977;53.132;6.408;2023-02-15T04:48:28;0.50;99.90
59208;DHT22;44977;53.132;6.408;2023-02-15T04:53:29;0.50;99.90
59208;DHT22;44977;53.132;6.408;2023-02-15T04:58:30;0.50;99.90
59208;DHT22;44977;53.132;6.408;2023-02-15T05:03:30;0.50;99.90
59208;DHT22;44977;53.132;6.408;2023-02-15T05:08:31;0.40;99.90
59208;DHT22;44977;53.132;6.408;2023-02-15T05:13:32;0.40;99.90
59208;DHT22;44977;53.132;6.408;2023-02-15T05:18:33;0.40;99.90
59208;DHT22;44977;53.132;6.408;2023-02-15T05:23:33;0.40;99.90
59208;DHT22;44977;53.132;6.408;2023-02-15T05:28:35;0.40;99.90
59208;DHT22;44977;53.132;6.408;2023-02-15T05:33:36;0.40;99.90
59208;DHT22;44977;53.132;6.408;2023-02-15T05:38:37;0.40;99.90
59208;DHT22;44977;53.132;6.408;2023-02-15T05:43:38;0.40;99.90
59208;DHT22;44977;53.132;6.408;2023-02-15T05:48:39;0.30;99.90
59208;DHT22;44977;53.132;6.408;2023-02-15T05:53:40;0.30;99.90
59208;DHT22;44977;53.132;6.408;2023-02-15T05:58:41;0.30;99.90
59208;DHT22;44977;53.132;6.408;2023-02-15T06:03:43;0.40;99.90
59208;DHT22;44977;53.132;6.408;2023-02-15T06:08:43;0.50;99.90
59208;DHT22;44977;53.132;6.408;2023-02-15T06:13:44;0.50;99.90
59208;DHT22;44977;53.132;6.408;2023-02-15T06:18:45;0.60;99.90
59208;DHT22;44977;53.132;6.408;2023-02-15T06:23:45;0.60;99.90
59208;DHT22;44977;53.132;6.408;2023-02-15T06:28:46;0.60;99.90
59208;DHT22;44977;53.132;6.408;2023-02-15T06:33:47;0.60;99.90
59208;DHT22;44977;53.132;6.408;2023-02-15T06:38:47;0.60;99.90
59208;DHT22;44977;53.132;6.408;2023-02-15T06:43:48;0.60;99.90
59208;DHT22;44977;53.132;6.408;2023-02-15T06:48:49;0.70;99.90
59208;DHT22;44977;53.132;6.408;2023-02-15T06:53:50;0.70;99.90
59208;DHT22;44977;53.132;6.408;2023-02-15T06:58:50;0.70;99.90
59208;DHT22;44977;53.132;6.408;2023-02-15T07:03:52;0.70;99.90
59208;DHT22;44977;53.132;6.408;2023-02-15T07:08:53;0.70;99.90
59208;DHT22;44977;53.132;6.408;2023-02-15T07:13:54;0.80;99.90
59208;DHT22;44977;53.132;6.408;2023-02-15T07:18:55;0.80;99.90
59208;DHT22;44977;53.132;6.408;2023-02-15T07:23:57;0.80;99.90
59208;DHT22;44977;53.132;6.408;2023-02-15T07:28:58;0.90;99.90
59208;DHT22;44977;53.132;6.408;2023-02-15T07:33:59;0.90;99.90
59208;DHT22;44977;53.132;6.408;2023-02-15T07:38:59;0.90;99.90
59208;DHT22;44977;53.132;6.408;2023-02-15T07:44:00;1.00;99.90
59208;DHT22;44977;53.132;6.408;2023-02-15T07:49:03;1.10;99.90
59208;DHT22;44977;53.132;6.408;2023-02-15T07:54:04;1.10;99.90
59208;DHT22;44977;53.132;6.408;2023-02-15T07:59:05;1.20;99.90
59208;DHT22;44977;53.132;6.408;2023-02-15T08:04:07;1.30;99.90
59208;DHT22;44977;53.132;6.408;2023-02-15T08:09:14;1.40;99.90
59208;DHT22;44977;53.132;6.408;2023-02-15T08:14:19;1.60;99.90
59208;DHT22;44977;53.132;6.408;2023-02-15T08:19:29;1.80;99.90
59208;DHT22;44977;53.132;6.408;2023-02-15T08:24:32;1.90;99.90
59208;DHT22;44977;53.132;6.408;2023-02-15T08:29:34;2.10;99.90
59208;DHT22;44977;53.132;6.408;2023-02-15T08:34:38;2.30;99.90
59208;DHT22;44977;53.132;6.408;2023-02-15T08:39:39;2.50;99.90
59208;DHT22;44977;53.132;6.408;2023-02-15T08:44:40;2.70;99.90
59208;DHT22;44977;53.132;6.408;2023-02-15T08:49:40;2.90;99.90
59208;DHT22;44977;53.132;6.408;2023-02-15T08:54:41;3.00;99.90
59208;DHT22;44977;53.132;6.408;2023-02-15T08:59:41;3.20;99.90
59208;DHT22;44977;53.132;6.408;2023-02-15T09:04:42;3.40;99.90
59208;DHT22;44977;53.132;6.408;2023-02-15T09:09:43;3.60;99.90
59208;DHT22;44977;53.132;6.408;2023-02-15T09:14:45;3.70;99.90
59208;DHT22;44977;53.132;6.408;2023-02-15T09:19:48;3.90;99.90
59208;DHT22;44977;53.132;6.408;2023-02-15T09:24:49;4.00;99.90
59208;DHT22;44977;53.132;6.408;2023-02-15T09:29:49;4.20;99.90
59208;DHT22;44977;53.132;6.408;2023-02-15T09:34:50;4.50;99.90
59208;DHT22;44977;53.132;6.408;2023-02-15T09:39:51;4.60;99.90
59208;DHT22;44977;53.132;6.408;2023-02-15T09:45:22;4.90;99.90
59208;DHT22;44977;53.132;6.408;2023-02-15T10:11:38;6.00;99.90
59208;DHT22;44977;53.132;6.408;2023-02-15T10:22:28;6.40;99.90
59208;DHT22;44977;53.132;6.408;2023-02-15T10:27:35;6.50;99.90
59208;DHT22;44977;53.132;6.408;2023-02-15T10:38:19;6.90;99.90
59208;DHT22;44977;53.132;6.408;2023-02-15T10:48:46;7.20;99.90
59208;DHT22;44977;53.132;6.408;2023-02-15T11:15:56;8.20;99.90
59208;DHT22;44977;53.132;6.408;2023-02-15T11:21:05;8.50;99.90
59208;DHT22;44977;53.132;6.408;2023-02-15T11:31:42;8.80;99.90
59208;DHT22;44977;53.132;6.408;2023-02-15T11:36:45;9.00;99.90
59208;DHT22;44977;53.132;6.408;2023-02-15T11:41:52;9.20;99.90
59208;DHT22;44977;53.132;6.408;2023-02-15T11:46:54;9.30;99.90
59208;DHT22;44977;53.132;6.408;2023-02-15T11:51:55;9.40;99.90
59208;DHT22;44977;53.132;6.408;2023-02-15T11:57:01;9.60;99.90
59208;DHT22;44977;53.132;6.408;2023-02-15T12:02:17;9.80;99.90
59208;DHT22;44977;53.132;6.408;2023-02-15T12:07:35;10.00;99.90
59208;DHT22;44977;53.132;6.408;2023-02-15T12:12:38;10.10;99.90
59208;DHT22;44977;53.132;6.408;2023-02-15T12:17:41;10.30;99.90
59208;DHT22;44977;53.132;6.408;2023-02-15T12:23:03;10.50;99.90
59208;DHT22;44977;53.132;6.408;2023-02-15T12:28:21;10.60;99.90
59208;DHT22;44977;53.132;6.408;2023-02-15T12:33:35;10.70;99.90
59208;DHT22;44977;53.132;6.408;2023-02-15T12:38:37;10.70;99.90
59208;DHT22;44977;53.132;6.408;2023-02-15T12:43:38;10.80;99.90
59208;DHT22;44977;53.132;6.408;2023-02-15T12:48:39;10.90;99.90
59208;DHT22;44977;53.132;6.408;2023-02-15T12:53:39;11.00;99.90
59208;DHT22;44977;53.132;6.408;2023-02-15T12:58:41;11.10;99.90
59208;DHT22;44977;53.132;6.408;2023-02-15T13:09:13;11.10;99.90
59208;DHT22;44977;53.132;6.408;2023-02-15T13:14:16;11.20;99.90
59208;DHT22;44977;53.132;6.408;2023-02-15T13:19:42;11.10;99.90
59208;DHT22;44977;53.132;6.408;2023-02-15T13:24:47;11.10;99.90
59208;DHT22;44977;53.132;6.408;2023-02-15T13:29:51;11.10;99.90
59208;DHT22;44977;53.132;6.408;2023-02-15T13:34:58;11.10;99.90
59208;DHT22;44977;53.132;6.408;2023-02-15T14:32:40;10.90;99.90
59208;DHT22;44977;53.132;6.408;2023-02-15T14:43:11;10.90;99.90
59208;DHT22;44977;53.132;6.408;2023-02-15T14:58:30;10.80;99.90
59208;DHT22;44977;53.132;6.408;2023-02-15T15:03:31;10.80;99.90
59208;DHT22;44977;53.132;6.408;2023-02-15T15:08:36;10.80;99.90
59208;DHT22;44977;53.132;6.408;2023-02-15T15:13:39;10.80;99.90
59208;DHT22;44977;53.132;6.408;2023-02-15T15:18:52;10.70;99.90
59208;DHT22;44977;53.132;6.408;2023-02-15T15:23:52;10.70;99.90
59208;DHT22;44977;53.132;6.408;2023-02-15T15:28:55;10.60;99.90
59208;DHT22;44977;53.132;6.408;2023-02-15T15:50:14;10.30;99.90
59208;DHT22;44977;53.132;6.408;2023-02-15T15:55:19;10.20;99.90
59208;DHT22;44977;53.132;6.408;2023-02-15T16:00:40;10.20;99.90
59208;DHT22;44977;53.132;6.408;2023-02-15T16:05:42;10.10;99.90
59208;DHT22;44977;53.132;6.408;2023-02-15T16:10:43;10.00;99.90
59208;DHT22;44977;53.132;6.408;2023-02-15T16:15:45;9.90;99.90
59208;DHT22;44977;53.132;6.408;2023-02-15T16:26:17;9.70;99.90
59208;DHT22;44977;53.132;6.408;2023-02-15T16:31:22;9.60;99.90
59208;DHT22;44977;53.132;6.408;2023-02-15T16:36:24;9.50;99.90
59208;DHT22;44977;53.132;6.408;2023-02-15T16:41:29;9.40;99.90
59208;DHT22;44977;53.132;6.408;2023-02-15T16:46:41;9.40;99.90
59208;DHT22;44977;53.132;6.408;2023-02-15T16:51:44;9.30;99.90
59208;DHT22;44977;53.132;6.408;2023-02-15T16:56:45;9.20;99.90
59208;DHT22;44977;53.132;6.408;2023-02-15T17:01:47;9.10;99.90
59208;DHT22;44977;53.132;6.408;2023-02-15T17:12:08;8.80;99.90
59208;DHT22;44977;53.132;6.408;2023-02-15T17:17:14;8.80;99.90
59208;DHT22;44977;53.132;6.408;2023-02-15T17:22:26;8.70;99.90
59208;DHT22;44977;53.132;6.408;2023-02-15T17:27:29;8.60;99.90
59208;DHT22;44977;53.132;6.408;2023-02-15T17:32:33;8.50;99.90
59208;DHT22;44977;53.132;6.408;2023-02-15T17:42:37;8.40;99.90
59208;DHT22;44977;53.132;6.408;2023-02-15T17:47:37;8.30;99.90
59208;DHT22;44977;53.132;6.408;2023-02-15T17:52:39;8.30;99.90
59208;DHT22;44977;53.132;6.408;2023-02-15T17:57:40;8.30;99.90
59208;DHT22;44977;53.132;6.408;2023-02-15T18:02:41;8.20;99.90
59208;DHT22;44977;53.132;6.408;2023-02-15T18:08:00;8.10;99.90
59208;DHT22;44977;53.132;6.408;2023-02-15T18:13:20;8.10;99.90
59208;DHT22;44977;53.132;6.408;2023-02-15T18:18:22;8.00;99.90
59208;DHT22;44977;53.132;6.408;2023-02-15T18:23:23;8.00;99.90
59208;DHT22;44977;53.132;6.408;2023-02-15T18:28:24;7.90;99.90
59208;DHT22;44977;53.132;6.408;2023-02-15T18:33:36;7.90;99.90
59208;DHT22;44977;53.132;6.408;2023-02-15T18:38:38;7.80;99.90
59208;DHT22;44977;53.132;6.408;2023-02-15T18:43:39;7.80;99.90
59208;DHT22;44977;53.132;6.408;2023-02-15T18:48:40;7.70;99.90
59208;DHT22;44977;53.132;6.408;2023-02-15T18:53:41;7.70;99.90
59208;DHT22;44977;53.132;6.408;2023-02-15T18:58:42;7.60;99.90
59208;DHT22;44977;53.132;6.408;2023-02-15T19:03:48;7.60;99.90
59208;DHT22;44977;53.132;6.408;2023-02-15T19:08:50;7.50;99.90
59208;DHT22;44977;53.132;6.408;2023-02-15T19:13:51;7.50;99.90
59208;DHT22;44977;53.132;6.408;2023-02-15T19:18:52;7.40;99.90
59208;DHT22;44977;53.132;6.408;2023-02-15T19:23:56;7.40;99.90
59208;DHT22;44977;53.132;6.408;2023-02-15T19:29:01;7.30;99.90
59208;DHT22;44977;53.132;6.408;2023-02-15T19:34:13;7.30;99.90
59208;DHT22;44977;53.132;6.408;2023-02-15T19:39:29;7.30;99.90
59208;DHT22;44977;53.132;6.408;2023-02-15T19:44:30;7.20;99.90
59208;DHT22;44977;53.132;6.408;2023-02-15T19:49:30;7.20;99.90
59208;DHT22;44977;53.132;6.408;2023-02-15T19:54:34;7.20;99.90
59208;DHT22;44977;53.132;6.408;2023-02-15T19:59:35;7.10;99.90
59208;DHT22;44977;53.132;6.408;2023-02-15T20:04:36;7.10;99.90
59208;DHT22;44977;53.132;6.408;2023-02-15T20:09:36;7.10;99.90
59208;DHT22;44977;53.132;6.408;2023-02-15T20:14:40;7.10;99.90
59208;DHT22;44977;53.132;6.408;2023-02-15T20:19:42;7.10;99.90
59208;DHT22;44977;53.132;6.408;2023-02-15T20:24:42;7.10;99.90
59208;DHT22;44977;53.132;6.408;2023-02-15T20:29:43;7.10;99.90
59208;DHT22;44977;53.132;6.408;2023-02-15T20:34:44;7.00;99.90
59208;DHT22;44977;53.132;6.408;2023-02-15T20:39:44;7.00;99.90
59208;DHT22;44977;53.132;6.408;2023-02-15T20:44:45;7.00;99.90
59208;DHT22;44977;53.132;6.408;2023-02-15T20:49:46;7.00;99.90
59208;DHT22;44977;53.132;6.408;2023-02-15T20:54:46;7.00;99.90
59208;DHT22;44977;53.132;6.408;2023-02-15T20:59:47;7.00;99.90
59208;DHT22;44977;53.132;6.408;2023-02-15T21:04:48;7.00;99.90
59208;DHT22;44977;53.132;6.408;2023-02-15T21:09:49;7.00;99.90
59208;DHT22;44977;53.132;6.408;2023-02-15T21:14:51;7.00;99.90
59208;DHT22;44977;53.132;6.408;2023-02-15T21:19:52;7.00;99.90
59208;DHT22;44977;53.132;6.408;2023-02-15T21:24:53;7.00;99.90
59208;DHT22;44977;53.132;6.408;2023-02-15T21:29:54;7.00;99.90
59208;DHT22;44977;53.132;6.408;2023-02-15T21:34:55;6.90;99.90
59208;DHT22;44977;53.132;6.408;2023-02-15T21:39:55;6.90;99.90
59208;DHT22;44977;53.132;6.408;2023-02-15T21:44:56;6.90;99.90
59208;DHT22;44977;53.132;6.408;2023-02-15T21:50:21;6.90;99.90
59208;DHT22;44977;53.132;6.408;2023-02-15T21:55:40;6.90;99.90
59208;DHT22;44977;53.132;6.408;2023-02-15T22:00:41;6.80;99.90
59208;DHT22;44977;53.132;6.408;2023-02-15T22:05:42;6.80;99.90
59208;DHT22;44977;53.132;6.408;2023-02-15T22:10:44;6.70;99.90
59208;DHT22;44977;53.132;6.408;2023-02-15T22:15:45;6.70;99.90
59208;DHT22;44977;53.132;6.408;2023-02-15T22:20:47;6.60;99.90
59208;DHT22;44977;53.132;6.408;2023-02-15T22:26:10;6.60;99.90
59208;DHT22;44977;53.132;6.408;2023-02-15T22:31:21;6.50;99.90
59208;DHT22;44977;53.132;6.408;2023-02-15T22:36:28;6.50;99.90
59208;DHT22;44977;53.132;6.408;2023-02-15T22:41:30;6.50;99.90
59208;DHT22;44977;53.132;6.408;2023-02-15T22:46:31;6.40;99.90
59208;DHT22;44977;53.132;6.408;2023-02-15T22:51:34;6.40;99.90
59208;DHT22;44977;53.132;6.408;2023-02-15T22:56:49;6.30;99.90
59208;DHT22;44977;53.132;6.408;2023-02-15T23:01:51;6.30;99.90
59208;DHT22;44977;53.132;6.408;2023-02-15T23:06:53;6.30;99.90
59208;DHT22;44977;53.132;6.408;2023-02-15T23:11:55;6.30;99.90
59208;DHT22;44977;53.132;6.408;2023-02-15T23:16:56;6.30;99.90
59208;DHT22;44977;53.132;6.408;2023-02-15T23:21:56;6.20;99.90
59208;DHT22;44977;53.132;6.408;2023-02-15T23:26:57;6.20;99.90
59208;DHT22;44977;53.132;6.408;2023-02-15T23:32:18;6.20;99.90
59208;DHT22;44977;53.132;6.408;2023-02-15T23:37:21;6.20;99.90
59208;DHT22;44977;53.132;6.408;2023-02-15T23:42:30;6.20;99.90
59208;DHT22;44977;53.132;6.408;2023-02-15T23:47:32;6.20;99.90
59208;DHT22;44977;53.132;6.408;2023-02-15T23:52:53;6.10;99.90
59208;DHT22;44977;53.132;6.408;2023-02-15T23:57:54;6.10;99.90
